createdAt,value
2022-08-15T00:00:26.095Z,1.48
2022-08-15T00:03:00.424Z,1.35
2022-08-15T00:05:32.677Z,1.50
2022-08-15T00:08:48.673Z,1.33
2022-08-15T00:11:01.269Z,1.55
2022-08-15T00:13:41.594Z,1.52
2022-08-15T00:16:10.808Z,1.45
2022-08-15T00:18:48.698Z,1.27
2022-08-15T00:21:18.504Z,1.35
2022-08-15T00:23:51.279Z,1.70
2022-08-15T00:26:28.302Z,1.60
2022-08-15T00:29:07.681Z,1.70
2022-08-15T00:31:41.872Z,1.80
2022-08-15T00:34:38.989Z,1.45
2022-08-15T00:37:05.239Z,1.50
2022-08-15T00:39:37.547Z,1.38
2022-08-15T00:42:07.751Z,1.90
2022-08-15T00:45:00.392Z,1.60
2022-08-15T00:47:38.913Z,1.60
2022-08-15T00:50:33.920Z,1.60
2022-08-15T00:52:57.317Z,1.60
2022-08-15T00:55:28.359Z,1.77
2022-08-15T00:58:01.374Z,1.52
2022-08-15T01:00:44.945Z,1.77
2022-08-15T01:03:18.847Z,1.70
2022-08-15T01:05:51.559Z,1.70
2022-08-15T01:08:31.018Z,1.60
2022-08-15T01:11:33.639Z,1.90
2022-08-15T01:14:54.708Z,1.77
2022-08-15T01:16:50.378Z,1.90
2022-08-15T01:19:40.162Z,1.90
2022-08-15T01:22:44.265Z,2.10
2022-08-15T01:26:42.239Z,1.70
2022-08-15T01:28:40.255Z,2.20
2022-08-15T01:31:18.788Z,2.25
2022-08-15T01:33:53.508Z,1.83
2022-08-15T01:36:32.226Z,1.80
2022-08-15T01:39:08.201Z,1.90
2022-08-15T01:41:54.672Z,1.90
2022-08-15T01:44:50.597Z,1.80
2022-08-15T01:48:01.784Z,2.13
2022-08-15T01:50:41.700Z,2.28
2022-08-15T01:53:47.758Z,2.40
2022-08-15T01:56:35.902Z,2.25
2022-08-15T01:59:06.485Z,2.30
2022-08-15T02:01:56.505Z,2.30
2022-08-15T02:04:37.244Z,2.30
2022-08-15T02:07:10.122Z,2.60
2022-08-15T02:09:51.318Z,2.00
2022-08-15T02:13:04.365Z,2.40
2022-08-15T02:15:17.244Z,2.40
2022-08-15T02:17:45.480Z,2.67
2022-08-15T02:20:20.744Z,2.33
2022-08-15T02:22:52.494Z,2.70
2022-08-15T02:25:22.701Z,2.20
2022-08-15T02:27:52.287Z,2.17
2022-08-15T02:30:21.964Z,2.53
2022-08-15T02:32:58.131Z,2.20
2022-08-15T02:35:28.851Z,2.30
2022-08-15T02:37:58.132Z,2.17
2022-08-15T02:40:44.304Z,2.22
2022-08-15T02:43:16.208Z,1.90
2022-08-15T02:45:56.179Z,2.20
2022-08-15T02:48:38.139Z,2.17
2022-08-15T02:51:13.828Z,1.60
2022-08-15T02:53:47.839Z,2.00
2022-08-15T02:56:22.239Z,1.70
2022-08-15T02:58:49.849Z,1.70
2022-08-15T03:01:23.972Z,2.00
2022-08-15T03:03:53.056Z,1.80
2022-08-15T03:06:31.325Z,1.90
2022-08-15T03:09:02.550Z,1.90
2022-08-15T03:11:40.266Z,1.48
2022-08-15T03:14:32.647Z,1.80
2022-08-15T03:17:06.426Z,1.60
2022-08-15T03:19:33.591Z,1.60
2022-08-15T03:22:00.598Z,1.77
2022-08-15T03:24:28.062Z,1.60
2022-08-15T03:26:55.241Z,1.75
2022-08-15T03:29:25.173Z,1.70
2022-08-15T03:32:01.707Z,1.50
2022-08-15T03:34:29.809Z,2.20
2022-08-15T03:36:58.383Z,3.50
2022-08-15T03:39:28.398Z,2.83
2022-08-15T03:41:56.274Z,3.65
2022-08-15T03:44:27.708Z,3.60
2022-08-15T03:46:56.335Z,3.00
2022-08-15T03:50:22.256Z,3.20
2022-08-15T03:52:11.032Z,2.53
2022-08-15T03:54:39.718Z,2.90
2022-08-15T03:57:09.639Z,3.42
2022-08-15T03:59:40.362Z,3.55
2022-08-15T04:02:29.852Z,3.08
2022-08-15T04:04:59.130Z,3.35
2022-08-15T04:07:40.606Z,3.83
2022-08-15T04:10:37.056Z,3.28
2022-08-15T04:12:59.982Z,3.17
2022-08-15T04:15:30.418Z,3.33
2022-08-15T04:17:59.750Z,3.70
2022-08-15T04:20:32.203Z,3.03
2022-08-15T04:23:02.413Z,3.67
2022-08-15T04:25:38.394Z,3.22
2022-08-15T04:28:28.925Z,3.78
2022-08-15T04:31:05.851Z,4.10
2022-08-15T04:34:03.129Z,3.78
2022-08-15T04:36:30.352Z,3.65
2022-08-15T04:38:59.785Z,3.38
2022-08-15T04:41:35.438Z,3.63
2022-08-15T04:44:05.134Z,3.22
2022-08-15T04:46:32.660Z,3.80
2022-08-15T04:49:00.162Z,4.40
2022-08-15T04:51:34.644Z,4.13
2022-08-15T04:54:04.224Z,3.60
2022-08-15T04:56:47.197Z,3.20
2022-08-15T04:59:34.355Z,3.42
2022-08-15T05:02:54.562Z,3.20
2022-08-15T05:04:55.739Z,3.45
2022-08-15T05:07:27.387Z,3.28
2022-08-15T05:09:59.333Z,3.38
2022-08-15T05:12:33.898Z,2.83
2022-08-15T05:15:04.069Z,3.67
2022-08-15T05:17:55.065Z,3.35
2022-08-15T05:20:23.717Z,3.38
2022-08-15T05:22:56.999Z,3.10
2022-08-15T05:25:29.633Z,3.30
2022-08-15T05:27:56.913Z,4.00
2022-08-15T05:30:28.180Z,3.75
2022-08-15T05:33:12.699Z,3.53
2022-08-15T05:35:51.642Z,4.07
2022-08-15T05:38:36.801Z,3.40
2022-08-15T05:41:26.199Z,3.20
2022-08-15T05:44:39.251Z,3.05
2022-08-15T05:47:25.299Z,4.40
2022-08-15T05:50:14.982Z,3.78
2022-08-15T05:53:05.477Z,3.50
2022-08-15T05:56:04.165Z,3.50
2022-08-15T05:58:52.597Z,3.28
2022-08-15T06:04:06.698Z,3.75
2022-08-15T06:06:46.641Z,3.72
2022-08-15T06:09:28.227Z,3.28
2022-08-15T06:12:22.229Z,3.50
2022-08-15T06:14:54.282Z,2.70
2022-08-15T06:17:27.003Z,2.78
2022-08-15T06:20:00.231Z,2.40
2022-08-15T06:22:46.534Z,2.70
2022-08-15T06:25:37.307Z,2.53
2022-08-15T06:28:51.967Z,2.92
2022-08-15T06:31:16.878Z,2.90
2022-08-15T06:34:05.281Z,2.83
2022-08-15T06:36:45.269Z,2.97
2022-08-15T06:39:31.143Z,2.90
2022-08-15T06:42:11.362Z,3.08
2022-08-15T06:44:43.778Z,3.05
2022-08-15T06:47:13.431Z,2.80
2022-08-15T06:49:47.497Z,2.90
2022-08-15T06:52:25.356Z,2.95
2022-08-15T06:54:53.130Z,3.20
2022-08-15T06:57:39.883Z,3.20
2022-08-15T07:00:35.704Z,2.83
2022-08-15T07:03:20.800Z,3.33
2022-08-15T07:05:56.230Z,3.10
2022-08-15T07:08:51.432Z,3.13
2022-08-15T07:11:28.488Z,3.33
2022-08-15T07:14:31.476Z,3.45
2022-08-15T07:17:16.063Z,3.38
2022-08-15T07:19:55.749Z,3.20
2022-08-15T07:22:35.675Z,3.50
2022-08-15T07:25:11.273Z,3.28
2022-08-15T07:27:39.297Z,3.45
2022-08-15T07:30:30.915Z,3.40
2022-08-15T07:32:59.035Z,3.70
2022-08-15T07:35:36.012Z,3.25
2022-08-15T07:40:56.398Z,3.60
2022-08-15T07:43:35.383Z,3.15
2022-08-15T07:46:23.861Z,5.32
2022-08-15T07:49:01.435Z,6.03
2022-08-15T07:54:35.111Z,3.20
2022-08-15T08:00:45.645Z,3.42
2022-08-15T08:03:34.399Z,3.42
2022-08-15T08:06:51.317Z,3.27
2022-08-15T08:09:32.241Z,2.73
2022-08-15T08:12:30.941Z,3.13
2022-08-15T08:18:42.965Z,3.42
2022-08-15T08:21:16.101Z,3.25
2022-08-15T08:23:47.211Z,3.15
2022-08-15T08:26:31.480Z,3.42
2022-08-15T08:29:20.952Z,3.40
2022-08-15T08:32:24.322Z,3.35
2022-08-15T08:35:24.077Z,3.70
2022-08-15T08:38:59.058Z,3.63
2022-08-15T08:41:45.828Z,3.50
2022-08-15T08:44:31.244Z,3.28
2022-08-15T08:47:30.978Z,3.10
2022-08-15T08:50:33.927Z,3.78
2022-08-15T08:53:02.835Z,3.40
2022-08-15T08:55:50.374Z,3.60
2022-08-15T08:58:47.032Z,3.50
2022-08-15T09:01:24.525Z,3.42
2022-08-15T09:04:01.791Z,3.83
2022-08-15T09:06:38.889Z,3.20
2022-08-15T09:09:19.139Z,3.15
2022-08-15T09:11:57.128Z,3.47
2022-08-15T09:14:32.032Z,3.90
2022-08-15T09:17:31.753Z,3.58
2022-08-15T09:20:12.103Z,3.40
2022-08-15T09:22:48.211Z,2.83
2022-08-15T09:25:15.562Z,3.25
2022-08-15T09:27:57.693Z,3.30
2022-08-15T09:30:33.560Z,3.60
2022-08-15T09:33:36.338Z,3.53
2022-08-15T09:36:25.085Z,3.72
2022-08-15T09:39:20.228Z,3.60
2022-08-15T09:41:57.089Z,3.60
2022-08-15T09:44:57.764Z,3.92
2022-08-15T09:47:55.911Z,4.07
2022-08-15T09:50:58.400Z,3.38
2022-08-15T09:53:52.342Z,3.78
2022-08-15T09:56:38.335Z,3.78
2022-08-15T09:59:26.530Z,3.50
2022-08-15T10:04:51.676Z,3.92
2022-08-15T10:07:45.409Z,3.60
2022-08-15T10:10:15.875Z,3.58
2022-08-15T10:13:08.872Z,3.47
2022-08-15T10:15:51.165Z,3.28
2022-08-15T10:18:27.608Z,3.78
2022-08-15T10:21:00.276Z,3.22
2022-08-15T10:23:41.824Z,3.03
2022-08-15T10:26:33.773Z,3.13
2022-08-15T10:29:09.131Z,2.97
2022-08-15T10:31:54.423Z,3.15
2022-08-15T10:34:57.573Z,3.83
2022-08-15T10:37:55.558Z,3.60
2022-08-15T10:40:51.686Z,3.03
2022-08-15T10:43:53.724Z,3.00
2022-08-15T10:46:44.927Z,3.58
2022-08-15T10:49:34.652Z,3.15
2022-08-15T10:52:20.822Z,3.38
2022-08-15T10:55:19.379Z,2.63
2022-08-15T10:58:15.645Z,2.90
2022-08-15T11:00:51.268Z,2.85
2022-08-15T11:04:57.669Z,2.88
2022-08-15T11:06:26.679Z,2.95
2022-08-15T11:08:59.374Z,2.63
2022-08-15T11:11:31.714Z,3.08
2022-08-15T11:14:20.608Z,3.13
2022-08-15T11:16:56.618Z,2.95
2022-08-15T11:20:10.460Z,3.58
2022-08-15T11:22:30.128Z,3.00
2022-08-15T11:25:01.790Z,2.65
2022-08-15T11:27:33.709Z,2.67
2022-08-15T11:30:18.860Z,2.72
2022-08-15T11:32:54.970Z,2.50
2022-08-15T11:35:26.041Z,2.72
2022-08-15T11:37:58.593Z,2.58
2022-08-15T11:40:40.272Z,2.30
2022-08-15T11:43:11.159Z,2.15
2022-08-15T11:45:51.236Z,2.85
2022-08-15T11:48:37.881Z,2.78
2022-08-15T11:51:17.361Z,2.23
2022-08-15T11:54:13.061Z,2.97
2022-08-15T11:57:02.048Z,2.78
2022-08-15T11:59:36.156Z,2.92
2022-08-15T12:02:32.426Z,2.78
2022-08-15T12:05:43.522Z,3.13
2022-08-15T12:08:21.469Z,2.90
2022-08-15T12:10:55.337Z,2.67
2022-08-15T12:13:33.989Z,2.75
2022-08-15T12:16:10.659Z,2.92
2022-08-15T12:18:51.624Z,2.90
2022-08-15T12:21:22.668Z,3.13
2022-08-15T12:24:00.540Z,2.58
2022-08-15T12:26:39.977Z,3.00
2022-08-15T12:29:18.759Z,3.03
2022-08-15T12:31:48.334Z,2.83
2022-08-15T12:34:27.477Z,2.90
2022-08-15T12:37:03.398Z,3.03
2022-08-15T12:39:44.679Z,2.90
2022-08-15T12:42:53.773Z,2.85
2022-08-15T12:45:17.162Z,2.95
2022-08-15T12:48:07.121Z,3.20
2022-08-15T12:50:33.005Z,2.90
2022-08-15T12:53:08.634Z,2.60
2022-08-15T12:55:38.851Z,3.78
2022-08-15T12:58:07.050Z,2.80
2022-08-15T13:00:37.024Z,2.58
2022-08-15T13:03:23.627Z,2.97
2022-08-15T13:06:32.582Z,3.00
2022-08-15T13:09:02.427Z,2.75
2022-08-15T13:11:32.524Z,3.30
2022-08-15T13:13:59.944Z,3.28
2022-08-15T13:17:05.725Z,2.88
2022-08-15T13:19:24.353Z,2.90
2022-08-15T13:22:32.491Z,4.82
2022-08-15T13:25:01.015Z,5.03
2022-08-15T13:27:29.325Z,5.22
2022-08-15T13:29:57.173Z,5.07
2022-08-15T13:32:25.370Z,4.40
2022-08-15T13:34:53.421Z,4.57
2022-08-15T13:38:01.117Z,4.35
2022-08-15T13:40:28.567Z,4.85
2022-08-15T13:43:02.466Z,4.88
2022-08-15T13:45:56.611Z,4.80
2022-08-15T13:48:37.019Z,5.72
2022-08-15T13:51:12.918Z,5.10
2022-08-15T13:54:32.902Z,4.53
2022-08-15T13:56:33.070Z,3.40
2022-08-15T13:59:12.304Z,3.30
2022-08-15T14:01:47.085Z,3.08
2022-08-15T14:04:20.421Z,2.92
2022-08-15T14:06:55.002Z,2.93
2022-08-15T14:10:04.243Z,2.92
2022-08-15T14:12:13.120Z,3.15
2022-08-15T14:14:46.889Z,3.20
2022-08-15T14:17:29.034Z,3.33
2022-08-15T14:20:26.985Z,3.13
2022-08-15T14:22:58.467Z,3.33
2022-08-15T14:27:09.088Z,2.97
2022-08-15T14:28:19.197Z,3.42
2022-08-15T14:30:55.205Z,3.40
2022-08-15T14:33:24.365Z,4.07
2022-08-15T14:35:58.410Z,4.15
2022-08-15T14:38:36.384Z,4.10
2022-08-15T14:41:04.214Z,4.40
2022-08-15T14:43:42.073Z,4.10
2022-08-15T14:46:31.135Z,4.57
2022-08-15T14:49:00.685Z,4.45
2022-08-15T14:52:23.280Z,4.35
2022-08-15T14:54:41.121Z,4.80
2022-08-15T14:57:11.102Z,4.78
2022-08-15T14:59:55.828Z,5.15
2022-08-15T15:02:28.649Z,4.90
2022-08-15T15:04:58.114Z,5.28
2022-08-15T15:07:53.772Z,4.90
2022-08-15T15:10:24.802Z,4.88
2022-08-15T15:13:00.437Z,4.60
2022-08-15T15:15:39.649Z,4.57
2022-08-15T15:18:33.932Z,4.43
2022-08-15T15:21:02.337Z,4.32
2022-08-15T15:23:30.256Z,4.70
2022-08-15T15:26:03.499Z,4.43
2022-08-15T15:28:41.499Z,4.22
2022-08-15T15:31:17.537Z,4.20
2022-08-15T15:33:45.479Z,3.58
2022-08-15T15:36:27.001Z,3.75
2022-08-15T15:39:02.403Z,3.42
2022-08-15T15:41:32.632Z,3.95
2022-08-15T15:44:19.081Z,3.75
2022-08-15T15:46:47.273Z,3.80
2022-08-15T15:49:29.022Z,3.42
2022-08-15T15:51:57.686Z,3.60
2022-08-15T15:54:39.294Z,3.53
2022-08-15T15:57:14.138Z,3.80
2022-08-15T15:59:58.131Z,3.85
2022-08-15T16:02:43.796Z,3.35
2022-08-15T16:05:23.045Z,3.42
2022-08-15T16:07:55.854Z,2.97
2022-08-15T16:10:36.634Z,3.22
2022-08-15T16:13:13.725Z,2.78
2022-08-15T16:15:49.729Z,2.90
2022-08-15T16:18:27.799Z,2.83
2022-08-15T16:20:58.821Z,2.50
2022-08-15T16:24:06.783Z,2.95
2022-08-15T16:26:53.512Z,2.35
2022-08-15T16:29:43.983Z,2.50
2022-08-15T16:32:20.473Z,2.40
2022-08-15T16:35:13.347Z,2.35
2022-08-15T16:37:46.188Z,2.70
2022-08-15T16:40:26.369Z,2.75
2022-08-15T16:43:14.987Z,2.47
2022-08-15T16:45:59.536Z,2.58
2022-08-15T16:48:57.143Z,2.83
2022-08-15T16:51:37.113Z,2.65
2022-08-15T16:54:10.280Z,2.90
2022-08-15T16:57:17.623Z,3.08
2022-08-15T16:59:52.597Z,2.90
2022-08-15T17:03:04.030Z,2.63
2022-08-15T17:05:56.840Z,2.80
2022-08-15T17:08:37.554Z,2.88
2022-08-15T17:11:21.912Z,2.90
2022-08-15T17:14:02.456Z,3.03
2022-08-15T17:16:53.785Z,3.20
2022-08-15T17:19:32.562Z,2.85
2022-08-15T17:22:17.214Z,2.65
2022-08-15T17:25:10.327Z,2.72
2022-08-15T17:28:34.043Z,2.83
2022-08-15T17:30:58.636Z,2.90
2022-08-15T17:33:43.628Z,2.70
2022-08-15T17:36:24.066Z,2.72
2022-08-15T17:39:05.261Z,3.10
2022-08-15T17:41:41.305Z,2.60
2022-08-15T17:44:50.547Z,2.30
2022-08-15T17:47:25.073Z,2.75
2022-08-15T17:50:46.904Z,2.80
2022-08-15T17:53:26.494Z,2.85
2022-08-15T17:55:59.281Z,2.55
2022-08-15T17:58:51.265Z,2.90
2022-08-15T18:01:19.428Z,2.50
2022-08-15T18:03:47.519Z,3.08
2022-08-15T18:06:15.103Z,2.88
2022-08-15T18:08:54.588Z,3.08
2022-08-15T18:11:34.324Z,2.83
2022-08-15T18:14:38.708Z,3.00
2022-08-15T18:17:02.760Z,3.05
2022-08-15T18:19:36.334Z,2.90
2022-08-15T18:22:22.840Z,2.95
2022-08-15T18:25:00.104Z,3.00
2022-08-15T18:27:54.740Z,3.30
2022-08-15T18:30:28.240Z,2.97
2022-08-15T18:33:48.893Z,2.92
2022-08-15T18:36:26.107Z,3.38
2022-08-15T18:39:18.964Z,3.55
2022-08-15T18:41:49.128Z,3.75
2022-08-15T18:44:41.303Z,3.13
2022-08-15T18:47:22.977Z,3.40
2022-08-15T18:49:50.089Z,3.20
2022-08-15T18:52:20.471Z,4.28
2022-08-15T18:55:01.201Z,3.53
2022-08-15T18:57:43.654Z,3.70
2022-08-15T19:00:16.545Z,4.10
2022-08-15T19:02:49.373Z,4.00
2022-08-15T19:05:26.126Z,4.05
2022-08-15T19:07:58.424Z,4.03
2022-08-15T19:10:30.720Z,4.40
2022-08-15T19:13:04.658Z,4.25
2022-08-15T19:15:40.992Z,4.65
2022-08-15T19:18:24.878Z,5.00
2022-08-15T19:21:10.891Z,4.00
2022-08-15T19:23:48.055Z,3.90
2022-08-15T19:26:31.342Z,4.20
2022-08-15T19:29:16.450Z,4.22
2022-08-15T19:31:59.921Z,4.45
2022-08-15T19:35:11.428Z,4.15
2022-08-15T19:37:57.338Z,3.85
2022-08-15T19:40:58.499Z,3.80
2022-08-15T19:44:00.262Z,4.05
2022-08-15T19:47:24.433Z,4.07
2022-08-15T19:50:38.351Z,4.15
2022-08-15T19:53:43.065Z,4.07
2022-08-15T19:56:43.679Z,3.85
2022-08-15T19:59:35.949Z,3.83
2022-08-15T20:02:02.970Z,3.92
2022-08-15T20:05:06.792Z,3.80
2022-08-15T20:07:46.125Z,4.03
2022-08-15T20:10:26.663Z,4.03
2022-08-15T20:13:12.552Z,4.30
2022-08-15T20:16:55.120Z,4.28
2022-08-15T20:19:44.997Z,3.90
2022-08-15T20:22:42.556Z,4.13
2022-08-15T20:25:26.466Z,4.25
2022-08-15T20:27:55.445Z,4.43
2022-08-15T20:30:36.613Z,4.60
2022-08-15T20:33:17.156Z,3.88
2022-08-15T20:36:01.639Z,4.72
2022-08-15T20:38:47.821Z,4.30
2022-08-15T20:41:28.031Z,4.28
2022-08-15T20:44:31.659Z,4.18
2022-08-15T20:46:59.619Z,4.40
2022-08-15T20:49:33.859Z,4.03
2022-08-15T20:52:39.561Z,4.07
2022-08-15T20:55:00.158Z,4.47
2022-08-15T20:57:40.576Z,4.50
2022-08-15T21:01:13.087Z,4.78
2022-08-15T21:03:08.935Z,4.40
2022-08-15T21:06:18.465Z,4.30
2022-08-15T21:08:55.225Z,4.45
2022-08-15T21:11:42.718Z,5.20
2022-08-15T21:15:09.216Z,4.30
2022-08-15T21:17:41.324Z,4.38
2022-08-15T21:20:33.223Z,4.45
2022-08-15T21:23:15.222Z,4.70
2022-08-15T21:25:44.776Z,4.90
2022-08-15T21:28:30.569Z,4.68
2022-08-15T21:31:25.026Z,4.70
2022-08-15T21:34:03.322Z,5.10
2022-08-15T21:36:35.535Z,5.13
2022-08-15T21:39:34.526Z,4.30
2022-08-15T21:45:02.986Z,5.83
2022-08-15T21:47:34.424Z,5.53
2022-08-15T21:50:26.463Z,5.57
2022-08-15T21:53:00.570Z,5.80
2022-08-15T21:55:33.493Z,6.70
2022-08-15T22:00:45.856Z,6.38
2022-08-15T22:03:40.399Z,6.60
2022-08-15T22:06:23.211Z,7.68
2022-08-15T22:08:55.375Z,8.07
2022-08-15T22:11:36.015Z,7.55
2022-08-15T22:14:06.597Z,8.23
2022-08-15T22:16:37.727Z,6.97
2022-08-15T22:19:10.474Z,7.63
2022-08-15T22:21:48.560Z,6.78
2022-08-15T22:24:17.852Z,6.68
2022-08-15T22:26:51.838Z,6.30
2022-08-15T22:29:31.498Z,5.88
2022-08-15T22:32:31.925Z,6.13
2022-08-15T22:34:49.943Z,6.78
2022-08-15T22:37:20.413Z,6.38
2022-08-15T22:39:48.438Z,6.47
2022-08-15T22:42:26.706Z,6.45
2022-08-15T22:44:54.076Z,6.50
2022-08-15T22:47:23.148Z,6.63
2022-08-15T22:49:55.181Z,7.40
2022-08-15T22:52:27.624Z,6.97
2022-08-15T22:54:58.052Z,7.13
2022-08-15T22:57:58.287Z,7.13
2022-08-15T23:00:18.226Z,6.68
2022-08-15T23:02:47.220Z,7.63
2022-08-15T23:05:25.973Z,7.30
2022-08-15T23:08:04.857Z,6.35
2022-08-15T23:10:43.541Z,6.65
2022-08-15T23:13:28.469Z,6.35
2022-08-15T23:16:03.804Z,6.03
2022-08-15T23:18:43.764Z,6.60
2022-08-15T23:21:16.277Z,7.30
2022-08-15T23:23:55.419Z,6.90
2022-08-15T23:26:32.030Z,6.72
2022-08-15T23:29:08.736Z,6.40
2022-08-15T23:31:49.375Z,6.90
2022-08-15T23:34:21.188Z,7.07
2022-08-15T23:37:01.216Z,6.68
2022-08-15T23:39:43.448Z,7.50
2022-08-15T23:42:28.191Z,7.20
2022-08-15T23:44:58.696Z,7.15
2022-08-15T23:47:29.095Z,8.13
2022-08-15T23:49:57.883Z,7.20
2022-08-15T23:52:29.629Z,7.28
2022-08-15T23:55:08.670Z,7.03
2022-08-15T23:57:36.636Z,7.03
